createdAt,value
2018-04-13T00:00:41.343Z,13.54
2018-04-13T00:03:09.622Z,13.48
2018-04-13T00:05:37.898Z,13.41
2018-04-13T00:08:12.149Z,13.45
2018-04-13T00:10:41.737Z,13.49
2018-04-13T00:13:10.012Z,13.31
2018-04-13T00:15:43.884Z,13.19
2018-04-13T00:18:18.651Z,13.17
2018-04-13T00:20:46.913Z,13.08
2018-04-13T00:23:20.999Z,12.99
2018-04-13T00:25:49.511Z,13.01
2018-04-13T00:28:17.796Z,12.81
2018-04-13T00:30:46.109Z,12.68
2018-04-13T00:33:15.302Z,12.55
2018-04-13T00:35:49.367Z,12.45
2018-04-13T00:38:17.625Z,12.44
2018-04-13T00:40:51.858Z,12.42
2018-04-13T00:43:20.187Z,12.39
2018-04-13T00:45:48.454Z,12.42
2018-04-13T00:48:16.699Z,12.30
2018-04-13T00:50:45.206Z,12.29
2018-04-13T00:53:25.208Z,12.22
2018-04-13T00:55:53.530Z,12.35
2018-04-13T00:58:21.847Z,12.43
2018-04-13T01:00:50.100Z,12.52
2018-04-13T01:03:18.414Z,12.47
2018-04-13T01:05:46.688Z,12.38
2018-04-13T01:08:14.977Z,12.39
2018-04-13T01:10:43.862Z,12.45
2018-04-13T01:13:12.158Z,12.46
2018-04-13T01:15:40.429Z,12.43
2018-04-13T01:18:08.723Z,12.52
2018-04-13T01:20:36.982Z,12.63
2018-04-13T01:23:05.309Z,12.47
2018-04-13T01:25:39.394Z,12.49
2018-04-13T01:28:07.684Z,12.44
2018-04-13T01:30:35.939Z,12.35
2018-04-13T01:33:04.711Z,12.20
2018-04-13T01:35:32.995Z,12.00
2018-04-13T01:38:01.274Z,11.91
2018-04-13T01:40:29.534Z,11.92
2018-04-13T01:42:57.844Z,11.78
2018-04-13T01:45:26.103Z,11.69
2018-04-13T01:47:54.379Z,11.67
2018-04-13T01:50:28.156Z,11.66
2018-04-13T01:52:56.441Z,11.59
2018-04-13T01:55:24.718Z,11.65
2018-04-13T01:57:52.978Z,11.59
2018-04-13T02:00:21.273Z,11.67
2018-04-13T02:03:01.110Z,11.70
2018-04-13T02:05:29.449Z,11.63
2018-04-13T02:08:03.653Z,11.57
2018-04-13T02:10:32.532Z,11.50
2018-04-13T02:13:00.825Z,11.65
2018-04-13T02:15:29.105Z,11.75
2018-04-13T02:17:57.382Z,11.64
2018-04-13T02:20:25.684Z,11.57
2018-04-13T02:22:53.957Z,11.59
2018-04-13T02:25:22.267Z,11.52
2018-04-13T02:27:56.270Z,11.48
2018-04-13T02:30:24.557Z,11.55
2018-04-13T02:32:52.950Z,11.48
2018-04-13T02:35:21.231Z,11.49
2018-04-13T02:37:49.507Z,11.55
2018-04-13T02:40:17.788Z,11.45
2018-04-13T02:42:46.042Z,11.31
2018-04-13T02:45:14.650Z,11.38
2018-04-13T02:47:43.130Z,11.23
2018-04-13T02:50:11.440Z,11.13
2018-04-13T02:52:39.696Z,11.31
2018-04-13T02:55:13.713Z,11.28
2018-04-13T02:57:48.127Z,11.36
2018-04-13T03:00:16.410Z,11.25
2018-04-13T03:02:50.786Z,10.90
2018-04-13T03:05:19.093Z,11.03
2018-04-13T03:07:53.074Z,11.04
2018-04-13T03:10:21.446Z,11.01
2018-04-13T03:12:49.702Z,11.03
2018-04-13T03:15:18.025Z,11.10
2018-04-13T03:17:52.248Z,11.06
2018-04-13T03:20:20.501Z,10.97
2018-04-13T03:22:48.835Z,11.01
2018-04-13T03:25:22.829Z,10.98
2018-04-13T03:27:51.129Z,11.03
2018-04-13T03:30:20.595Z,10.96
2018-04-13T03:32:48.888Z,11.00
2018-04-13T03:35:22.779Z,11.01
2018-04-13T03:37:56.862Z,10.82
2018-04-13T03:40:25.158Z,10.69
2018-04-13T03:42:53.465Z,10.56
2018-04-13T03:45:27.590Z,10.55
2018-04-13T03:47:55.869Z,10.64
2018-04-13T03:50:30.118Z,10.69
2018-04-13T03:52:58.442Z,10.63
2018-04-13T03:55:26.711Z,10.69
2018-04-13T03:57:54.975Z,10.74
2018-04-13T04:00:23.286Z,10.64
2018-04-13T04:02:57.400Z,10.62
2018-04-13T04:05:25.684Z,10.61
2018-04-13T04:07:53.974Z,10.71
2018-04-13T04:10:27.806Z,10.72
2018-04-13T04:12:56.110Z,10.70
2018-04-13T04:15:24.439Z,10.79
2018-04-13T04:17:58.494Z,10.74
2018-04-13T04:20:41.015Z,10.65
2018-04-13T04:23:21.713Z,10.62
2018-04-13T04:26:01.730Z,10.73
2018-04-13T04:28:30.002Z,10.64
2018-04-13T04:30:58.283Z,10.72
2018-04-13T04:33:26.554Z,10.70
2018-04-13T04:35:54.852Z,10.74
2018-04-13T04:38:23.150Z,10.71
2018-04-13T04:40:51.455Z,10.69
2018-04-13T04:43:19.707Z,10.82
2018-04-13T04:45:48.007Z,10.88
2018-04-13T04:48:16.302Z,10.86
2018-04-13T04:50:44.618Z,10.78
2018-04-13T04:53:18.778Z,10.80
2018-04-13T04:55:53.013Z,10.78
2018-04-13T04:58:21.289Z,10.63
2018-04-13T05:01:01.030Z,10.60
2018-04-13T05:03:29.337Z,10.76
2018-04-13T05:05:58.354Z,10.78
2018-04-13T05:08:26.638Z,10.74
2018-04-13T05:11:06.770Z,10.54
2018-04-13T05:13:41.776Z,10.51
2018-04-13T05:16:15.913Z,10.41
2018-04-13T05:18:44.218Z,10.50
2018-04-13T05:21:12.523Z,10.58
2018-04-13T05:23:40.844Z,10.62
2018-04-13T05:26:15.790Z,10.56
2018-04-13T05:28:44.052Z,10.48
2018-04-13T05:31:12.358Z,10.54
2018-04-13T05:33:46.355Z,10.67
2018-04-13T05:36:20.385Z,10.77
2018-04-13T05:38:48.684Z,10.86
2018-04-13T05:41:16.977Z,10.98
2018-04-13T05:43:56.764Z,11.05
2018-04-13T05:46:25.050Z,11.10
2018-04-13T05:48:53.314Z,11.17
2018-04-13T05:51:33.163Z,11.24
2018-04-13T05:54:01.443Z,11.31
2018-04-13T05:56:41.114Z,11.34
2018-04-13T05:59:15.389Z,11.43
2018-04-13T06:01:49.216Z,11.48
2018-04-13T06:04:17.505Z,11.55
2018-04-13T06:06:45.789Z,11.46
2018-04-13T06:09:14.128Z,11.42
2018-04-13T06:11:47.850Z,11.38
2018-04-13T06:14:16.122Z,11.43
2018-04-13T06:16:44.385Z,11.44
2018-04-13T06:19:12.676Z,11.50
2018-04-13T06:21:40.943Z,11.60
2018-04-13T06:24:09.274Z,11.76
2018-04-13T06:26:49.182Z,11.82
2018-04-13T06:29:17.493Z,11.88
2018-04-13T06:31:45.789Z,12.06
2018-04-13T06:34:14.534Z,12.15
2018-04-13T06:36:42.839Z,12.19
2018-04-13T06:39:11.298Z,12.25
2018-04-13T06:41:39.530Z,12.36
2018-04-13T06:44:07.832Z,12.51
2018-04-13T06:46:36.106Z,12.45
2018-04-13T06:49:11.114Z,12.60
2018-04-13T06:51:44.923Z,12.56
2018-04-13T06:54:14.258Z,12.69
2018-04-13T06:56:43.258Z,12.79
2018-04-13T06:59:11.549Z,12.98
2018-04-13T07:01:45.720Z,12.97
2018-04-13T07:04:19.562Z,12.91
2018-04-13T07:06:47.846Z,13.09
2018-04-13T07:09:16.125Z,13.21
2018-04-13T07:11:50.030Z,13.26
2018-04-13T07:14:18.354Z,13.28
2018-04-13T07:16:46.619Z,13.28
2018-04-13T07:19:26.495Z,13.20
2018-04-13T07:22:06.461Z,13.06
2018-04-13T07:24:46.298Z,12.91
2018-04-13T07:27:14.575Z,12.77
2018-04-13T07:29:48.667Z,12.74
2018-04-13T07:32:17.072Z,12.87
2018-04-13T07:34:51.211Z,12.93
2018-04-13T07:37:20.719Z,12.98
2018-04-13T07:39:54.989Z,13.06
2018-04-13T07:42:28.909Z,13.22
2018-04-13T07:44:58.254Z,13.20
2018-04-13T07:47:32.354Z,13.32
2018-04-13T07:50:00.710Z,13.38
2018-04-13T07:52:35.915Z,13.33
2018-04-13T07:55:11.464Z,13.35
2018-04-13T07:57:39.739Z,13.52
2018-04-13T08:00:08.018Z,13.63
2018-04-13T08:02:36.326Z,13.65
2018-04-13T08:05:04.841Z,13.62
2018-04-13T08:07:33.136Z,13.74
2018-04-13T08:10:01.410Z,13.42
2018-04-13T08:12:29.751Z,13.84
2018-04-13T08:15:03.931Z,13.91
2018-04-13T08:17:32.575Z,14.02
2018-04-13T08:20:00.864Z,14.14
2018-04-13T08:22:29.157Z,14.16
2018-04-13T08:25:03.019Z,14.19
2018-04-13T08:27:36.967Z,14.26
2018-04-13T08:30:17.356Z,14.34
2018-04-13T08:32:45.579Z,14.47
2018-04-13T08:35:13.865Z,14.37
2018-04-13T08:37:42.190Z,14.32
2018-04-13T08:40:10.484Z,14.30
2018-04-13T08:42:44.655Z,14.29
2018-04-13T08:45:12.908Z,14.33
2018-04-13T08:47:46.745Z,14.28
2018-04-13T08:50:15.118Z,14.35
2018-04-13T08:52:43.373Z,14.35
2018-04-13T08:55:23.409Z,14.37
2018-04-13T08:57:51.750Z,14.40
2018-04-13T09:00:20.038Z,14.27
2018-04-13T09:02:54.076Z,14.36
2018-04-13T09:05:22.346Z,14.48
2018-04-13T09:07:51.552Z,14.53
2018-04-13T09:10:31.345Z,14.55
2018-04-13T09:12:59.669Z,14.56
2018-04-13T09:15:33.665Z,14.55
2018-04-13T09:18:07.695Z,14.53
2018-04-13T09:20:35.978Z,14.60
2018-04-13T09:23:04.272Z,14.52
2018-04-13T09:25:32.662Z,14.50
2018-04-13T09:28:00.951Z,14.54
2018-04-13T09:30:35.032Z,14.57
2018-04-13T09:33:03.302Z,14.56
2018-04-13T09:35:37.472Z,14.54
2018-04-13T09:38:05.714Z,14.55
2018-04-13T09:40:45.855Z,14.51
2018-04-13T09:43:19.705Z,14.35
2018-04-13T09:45:53.895Z,14.25
2018-04-13T09:48:27.645Z,14.16
2018-04-13T09:50:55.913Z,14.02
2018-04-13T09:53:24.199Z,13.99
2018-04-13T09:55:52.519Z,13.75
2018-04-13T09:58:20.807Z,13.73
2018-04-13T10:00:54.858Z,13.55
2018-04-13T10:03:23.129Z,13.41
2018-04-13T10:05:57.272Z,13.35
2018-04-13T10:08:25.545Z,13.45
2018-04-13T10:10:59.487Z,13.48
2018-04-13T10:13:33.334Z,13.59
2018-04-13T10:16:08.653Z,13.47
2018-04-13T10:18:36.914Z,13.70
2018-04-13T10:21:10.926Z,13.76
2018-04-13T10:23:39.183Z,13.78
2018-04-13T10:26:07.453Z,13.66
2018-04-13T10:28:35.767Z,13.91
2018-04-13T10:31:04.001Z,13.88
2018-04-13T10:33:32.326Z,13.77
2018-04-13T10:36:00.585Z,13.68
2018-04-13T10:38:29.176Z,13.70
2018-04-13T10:40:57.541Z,13.67
2018-04-13T10:43:26.337Z,13.61
2018-04-13T10:45:55.574Z,13.73
2018-04-13T10:48:24.188Z,13.76
2018-04-13T10:50:58.011Z,13.66
2018-04-13T10:53:31.830Z,13.59
2018-04-13T10:56:05.829Z,13.50
2018-04-13T10:58:34.149Z,13.51
2018-04-13T11:01:02.503Z,13.47
2018-04-13T11:03:30.806Z,13.45
2018-04-13T11:05:59.106Z,13.38
2018-04-13T11:08:27.426Z,13.32
2018-04-13T11:11:01.621Z,13.30
2018-04-13T11:13:29.983Z,13.37
2018-04-13T11:15:58.578Z,13.20
2018-04-13T11:18:32.396Z,13.19
2018-04-13T11:21:07.226Z,13.19
2018-04-13T11:23:35.545Z,13.17
2018-04-13T11:26:03.860Z,13.23
2018-04-13T11:28:37.923Z,13.20
2018-04-13T11:31:11.695Z,13.13
2018-04-13T11:33:40.171Z,13.18
2018-04-13T11:36:08.454Z,13.18
2018-04-13T11:38:36.738Z,13.29
2018-04-13T11:41:05.347Z,13.26
2018-04-13T11:43:45.143Z,13.20
2018-04-13T11:46:19.276Z,13.10
2018-04-13T11:48:59.836Z,12.99
2018-04-13T11:51:28.105Z,12.81
2018-04-13T11:53:56.409Z,13.05
2018-04-13T11:56:24.690Z,13.40
2018-04-13T11:58:52.988Z,13.49
2018-04-13T12:01:21.337Z,13.60
2018-04-13T12:03:49.603Z,13.72
2018-04-13T12:06:17.906Z,13.63
2018-04-13T12:08:46.386Z,13.67
2018-04-13T12:11:14.663Z,13.77
2018-04-13T12:13:42.939Z,13.80
2018-04-13T12:16:11.263Z,13.83
2018-04-13T12:18:39.557Z,13.98
2018-04-13T12:21:07.888Z,14.08
2018-04-13T12:23:42.429Z,14.23
2018-04-13T12:26:12.355Z,14.32
2018-04-13T12:28:40.630Z,14.28
2018-04-13T12:31:08.933Z,14.18
2018-04-13T12:33:37.220Z,14.12
2018-04-13T12:36:05.936Z,14.13
2018-04-13T12:38:34.198Z,14.11
2018-04-13T12:41:02.506Z,14.14
2018-04-13T12:43:30.770Z,14.17
2018-04-13T12:45:59.057Z,14.09
2018-04-13T12:48:27.420Z,14.13
2018-04-13T12:50:55.820Z,14.21
2018-04-13T12:53:24.805Z,14.26
2018-04-13T12:55:53.159Z,14.20
2018-04-13T12:58:21.419Z,14.21
2018-04-13T13:00:49.725Z,14.24
2018-04-13T13:03:18.022Z,14.26
2018-04-13T13:05:46.376Z,14.35
2018-04-13T13:08:14.707Z,14.42
2018-04-13T13:10:42.996Z,14.42
2018-04-13T13:13:11.304Z,14.43
2018-04-13T13:15:39.614Z,14.43
2018-04-13T13:18:07.962Z,14.49
2018-04-13T13:20:36.766Z,14.49
2018-04-13T13:23:05.972Z,14.54
2018-04-13T13:25:34.304Z,14.63
2018-04-13T13:28:02.582Z,14.75
2018-04-13T13:30:30.858Z,14.80
2018-04-13T13:32:59.170Z,14.81
2018-04-13T13:35:27.518Z,14.77
2018-04-13T13:37:55.774Z,14.73
2018-04-13T13:40:24.053Z,14.74
2018-04-13T13:42:52.410Z,14.76
2018-04-13T13:45:20.719Z,14.76
2018-04-13T13:47:48.995Z,14.83
2018-04-13T13:50:17.279Z,14.91
2018-04-13T13:52:45.563Z,14.90
2018-04-13T13:55:13.889Z,14.94
2018-04-13T13:57:42.186Z,14.93
2018-04-13T14:00:10.495Z,14.90
2018-04-13T14:02:38.757Z,14.91
2018-04-13T14:05:07.054Z,14.92
2018-04-13T14:07:35.342Z,15.01
2018-04-13T14:10:03.726Z,15.09
2018-04-13T14:12:32.069Z,15.16
2018-04-13T14:15:00.397Z,15.11
2018-04-13T14:17:28.739Z,15.10
2018-04-13T14:19:57.035Z,14.90
2018-04-13T14:22:25.296Z,14.99
2018-04-13T14:24:53.597Z,15.00
2018-04-13T14:27:22.450Z,15.14
2018-04-13T14:29:50.813Z,15.21
2018-04-13T14:32:19.204Z,15.14
2018-04-13T14:34:48.257Z,15.19
2018-04-13T14:37:16.598Z,15.20
2018-04-13T14:39:44.865Z,15.18
2018-04-13T14:42:13.166Z,15.26
2018-04-13T14:44:41.546Z,15.22
2018-04-13T14:47:10.151Z,15.18
2018-04-13T14:49:38.439Z,15.15
2018-04-13T14:52:06.878Z,15.23
2018-04-13T14:54:35.152Z,15.12
2018-04-13T14:57:03.434Z,15.25
2018-04-13T14:59:31.715Z,15.27
2018-04-13T15:02:00.010Z,15.32
2018-04-13T15:04:28.267Z,15.34
2018-04-13T15:06:56.631Z,15.20
2018-04-13T15:09:24.922Z,15.12
2018-04-13T15:11:53.186Z,15.02
2018-04-13T15:14:21.483Z,15.09
2018-04-13T15:16:49.749Z,15.26
2018-04-13T15:19:18.094Z,15.15
2018-04-13T15:21:46.446Z,15.24
2018-04-13T15:24:14.770Z,15.18
2018-04-13T15:26:45.016Z,15.20
2018-04-13T15:29:13.367Z,15.22
2018-04-13T15:31:41.734Z,15.26
2018-04-13T15:34:10.361Z,15.31
2018-04-13T15:36:38.611Z,15.35
2018-04-13T15:39:06.926Z,15.33
2018-04-13T15:41:35.272Z,15.35
2018-04-13T15:44:03.613Z,15.38
2018-04-13T15:46:31.908Z,15.46
2018-04-13T15:49:00.213Z,15.45
2018-04-13T15:51:28.527Z,15.43
2018-04-13T15:53:57.582Z,15.44
2018-04-13T15:56:25.852Z,15.37
2018-04-13T15:58:54.228Z,15.44
2018-04-13T16:01:22.499Z,15.40
2018-04-13T16:03:50.881Z,15.38
2018-04-13T16:06:19.175Z,15.37
2018-04-13T16:08:47.435Z,15.40
2018-04-13T16:11:15.727Z,15.46
2018-04-13T16:13:43.983Z,15.46
2018-04-13T16:16:12.373Z,15.51
2018-04-13T16:18:40.707Z,15.50
2018-04-13T16:21:09.008Z,15.48
2018-04-13T16:23:37.311Z,15.41
2018-04-13T16:26:05.646Z,15.36
2018-04-13T16:28:34.195Z,15.34
2018-04-13T16:31:02.529Z,15.35
2018-04-13T16:33:30.816Z,15.36
2018-04-13T16:35:59.087Z,15.38
2018-04-13T16:38:27.473Z,15.37
2018-04-13T16:40:55.999Z,15.36
2018-04-13T16:43:24.273Z,15.43
2018-04-13T16:45:53.495Z,15.49
2018-04-13T16:48:21.796Z,15.50
2018-04-13T16:50:50.084Z,15.51
2018-04-13T16:53:18.375Z,15.49
2018-04-13T16:55:46.659Z,15.44
2018-04-13T16:58:14.954Z,15.40
2018-04-13T17:00:43.239Z,15.33
2018-04-13T17:03:12.034Z,15.32
2018-04-13T17:05:40.352Z,15.35
2018-04-13T17:08:09.557Z,15.19
2018-04-13T17:10:37.841Z,15.33
2018-04-13T17:13:06.137Z,15.23
2018-04-13T17:15:34.457Z,15.37
2018-04-13T17:18:02.779Z,15.41
2018-04-13T17:20:31.087Z,15.31
2018-04-13T17:22:59.386Z,15.23
2018-04-13T17:25:27.702Z,15.18
2018-04-13T17:27:55.957Z,15.15
2018-04-13T17:30:24.402Z,15.17
2018-04-13T17:32:52.676Z,15.14
2018-04-13T17:35:20.986Z,15.15
2018-04-13T17:37:49.258Z,15.12
2018-04-13T17:40:18.280Z,15.12
2018-04-13T17:42:46.563Z,15.14
2018-04-13T17:45:14.871Z,15.13
2018-04-13T17:47:43.113Z,15.13
2018-04-13T17:50:11.394Z,15.05
2018-04-13T17:52:39.671Z,15.05
2018-04-13T17:55:07.961Z,14.96
2018-04-13T17:57:36.436Z,14.83
2018-04-13T18:00:04.909Z,14.85
2018-04-13T18:02:33.227Z,14.90
2018-04-13T18:05:01.768Z,14.83
2018-04-13T18:07:30.065Z,14.88
2018-04-13T18:09:58.475Z,14.88
2018-04-13T18:12:26.832Z,14.84
2018-04-13T18:14:55.125Z,14.83
2018-04-13T18:17:23.384Z,14.80
2018-04-13T18:19:51.681Z,14.77
2018-04-13T18:22:19.955Z,14.80
2018-04-13T18:24:48.287Z,14.81
2018-04-13T18:27:16.576Z,14.75
2018-04-13T18:29:44.873Z,14.70
2018-04-13T18:32:13.129Z,14.67
2018-04-13T18:34:42.317Z,14.64
2018-04-13T18:37:10.703Z,14.62
2018-04-13T18:39:38.964Z,14.59
2018-04-13T18:42:07.288Z,14.57
2018-04-13T18:44:35.541Z,14.54
2018-04-13T18:47:03.863Z,14.56
2018-04-13T18:49:32.106Z,14.50
2018-04-13T18:52:01.218Z,14.49
2018-04-13T18:54:29.489Z,14.51
2018-04-13T18:56:57.820Z,14.50
2018-04-13T18:59:26.125Z,14.43
2018-04-13T19:01:54.508Z,14.40
2018-04-13T19:04:22.768Z,14.32
2018-04-13T19:06:51.072Z,14.27
2018-04-13T19:09:19.420Z,14.22
2018-04-13T19:11:47.773Z,14.20
2018-04-13T19:14:16.068Z,14.18
2018-04-13T19:16:44.355Z,14.13
2018-04-13T19:19:12.641Z,14.12
2018-04-13T19:21:41.178Z,14.07
2018-04-13T19:24:09.786Z,14.01
2018-04-13T19:26:38.066Z,14.08
2018-04-13T19:29:06.388Z,14.05
2018-04-13T19:31:35.026Z,14.02
2018-04-13T19:34:03.315Z,14.01
2018-04-13T19:36:31.684Z,13.94
2018-04-13T19:38:59.977Z,13.84
2018-04-13T19:41:28.256Z,13.78
2018-04-13T19:43:56.553Z,13.73
2018-04-13T19:46:24.841Z,13.70
2018-04-13T19:48:53.140Z,13.61
2018-04-13T19:51:21.403Z,13.53
2018-04-13T19:53:49.705Z,13.59
2018-04-13T19:56:17.994Z,13.56
2018-04-13T19:58:46.288Z,13.55
2018-04-13T20:01:14.566Z,13.58
2018-04-13T20:03:42.886Z,13.43
2018-04-13T20:06:11.136Z,13.40
2018-04-13T20:08:39.424Z,13.27
2018-04-13T20:11:07.688Z,13.29
2018-04-13T20:13:35.966Z,13.30
2018-04-13T20:16:04.864Z,13.24
2018-04-13T20:18:33.163Z,13.22
2018-04-13T20:21:01.557Z,13.15
2018-04-13T20:23:29.817Z,13.09
2018-04-13T20:25:58.090Z,13.12
2018-04-13T20:28:26.359Z,13.05
2018-04-13T20:30:54.696Z,13.02
2018-04-13T20:33:23.026Z,13.00
2018-04-13T20:35:51.345Z,13.07
2018-04-13T20:38:19.650Z,13.10
2018-04-13T20:40:47.931Z,13.11
2018-04-13T20:43:16.203Z,13.04
2018-04-13T20:45:44.499Z,12.91
2018-04-13T20:48:12.785Z,12.80
2018-04-13T20:50:41.061Z,12.79
2018-04-13T20:53:09.342Z,12.84
2018-04-13T20:55:37.638Z,12.80
2018-04-13T20:58:05.955Z,12.71
2018-04-13T21:00:34.259Z,12.62
2018-04-13T21:03:03.273Z,12.59
2018-04-13T21:05:31.515Z,12.46
2018-04-13T21:07:59.827Z,12.43
2018-04-13T21:10:28.105Z,12.42
2018-04-13T21:12:56.434Z,12.40
2018-04-13T21:15:25.574Z,12.38
2018-04-13T21:17:53.893Z,12.39
2018-04-13T21:20:22.137Z,12.38
2018-04-13T21:22:50.449Z,12.32
2018-04-13T21:25:18.712Z,12.33
2018-04-13T21:27:47.084Z,12.24
2018-04-13T21:30:15.432Z,12.29
2018-04-13T21:32:43.689Z,12.35
2018-04-13T21:35:11.953Z,12.35
2018-04-13T21:37:40.282Z,12.28
2018-04-13T21:40:08.548Z,12.27
2018-04-13T21:42:36.984Z,12.25
2018-04-13T21:45:05.596Z,12.24
2018-04-13T21:47:33.862Z,12.27
2018-04-13T21:50:02.276Z,12.20
2018-04-13T21:52:30.612Z,12.09
2018-04-13T21:54:59.611Z,12.12
2018-04-13T21:57:27.950Z,11.98
2018-04-13T21:59:56.242Z,11.92
2018-04-13T22:02:24.502Z,11.86
2018-04-13T22:04:52.802Z,11.82
2018-04-13T22:07:21.067Z,11.83
2018-04-13T22:09:49.355Z,11.78
2018-04-13T22:12:29.502Z,11.76
2018-04-13T22:14:57.961Z,11.69
2018-04-13T22:17:26.241Z,11.68
2018-04-13T22:19:54.521Z,11.61
2018-04-13T22:22:22.863Z,11.56
2018-04-13T22:24:51.226Z,11.63
2018-04-13T22:27:19.450Z,11.60
2018-04-13T22:29:47.734Z,11.58
2018-04-13T22:32:16.091Z,11.50
2018-04-13T22:34:44.362Z,11.38
2018-04-13T22:37:12.646Z,11.36
2018-04-13T22:39:40.962Z,11.28
2018-04-13T22:42:09.242Z,11.22
2018-04-13T22:44:37.506Z,11.28
2018-04-13T22:47:06.256Z,11.27
2018-04-13T22:49:34.580Z,11.23
2018-04-13T22:52:02.952Z,11.16
2018-04-13T22:54:31.239Z,11.18
2018-04-13T22:56:59.535Z,11.14
2018-04-13T22:59:27.789Z,11.08
2018-04-13T23:01:56.083Z,11.13
2018-04-13T23:04:24.367Z,11.14
2018-04-13T23:06:52.717Z,11.20
2018-04-13T23:09:20.980Z,11.21
2018-04-13T23:11:51.043Z,11.16
2018-04-13T23:14:19.270Z,11.09
2018-04-13T23:16:47.567Z,11.11
2018-04-13T23:19:16.159Z,11.03
2018-04-13T23:21:44.477Z,10.94
2018-04-13T23:24:12.985Z,10.99
2018-04-13T23:26:41.284Z,11.00
2018-04-13T23:29:09.579Z,10.92
2018-04-13T23:31:37.863Z,10.92
2018-04-13T23:34:06.161Z,10.92
2018-04-13T23:36:34.426Z,10.82
2018-04-13T23:39:02.722Z,10.87
2018-04-13T23:41:31.910Z,10.94
2018-04-13T23:44:00.199Z,10.83
2018-04-13T23:46:28.449Z,10.77
2018-04-13T23:48:56.807Z,10.73
2018-04-13T23:51:25.098Z,10.69
2018-04-13T23:53:53.375Z,10.52
2018-04-13T23:56:21.643Z,10.50
2018-04-13T23:58:49.955Z,10.48
